Terminal Aerodrome Forecast
Issued by NWS

Home | Current Version | Previous Version | Text Only | Print | Product List | Glossary On
Versions: 1 2 3 4 5 6 7 8 9 10 11 12 13 14 15 16 17 18 19 20 21 22
000
FTAK31 PAFA 300540
TAFAGA
TAF
PAGA 300540Z 3006/0106 31005KT P6SM SCT100 BKN200
     FM300900 VRB03KT P6SM VCSH SCT040 BKN100
     FM301200 VRB03KT P6SM SCT080 BKN200
     FM302100 03006KT P6SM SCT070 BKN200=

USA.gov is the U.S. government's official web portal to all federal, state and local government web resources and services.